createdAt,value
2022-12-31T00:00:45.638Z,9.15
2022-12-31T00:03:15.319Z,9.53
2022-12-31T00:05:42.931Z,8.43
2022-12-31T00:08:10.624Z,9.60
2022-12-31T00:10:40.079Z,9.80
2022-12-31T00:13:11.102Z,10.55
2022-12-31T00:15:40.779Z,9.25
2022-12-31T00:18:09.501Z,8.23
2022-12-31T00:20:41.469Z,8.15
2022-12-31T00:23:10.934Z,8.28
2022-12-31T00:25:38.616Z,8.43
2022-12-31T00:28:06.455Z,8.53
2022-12-31T00:30:34.557Z,7.55
2022-12-31T00:33:02.305Z,7.95
2022-12-31T00:35:30.337Z,7.40
2022-12-31T00:37:57.850Z,7.72
2022-12-31T00:40:25.376Z,8.55
2022-12-31T00:42:52.875Z,13.55
2022-12-31T00:45:20.512Z,16.73
2022-12-31T00:47:47.890Z,16.52
2022-12-31T00:50:15.583Z,12.25
2022-12-31T00:52:43.233Z,10.43
2022-12-31T00:55:10.829Z,13.08
2022-12-31T00:57:38.281Z,18.20
2022-12-31T01:00:08.494Z,28.07
2022-12-31T01:02:36.361Z,11.50
2022-12-31T01:05:05.250Z,11.00
2022-12-31T01:07:41.824Z,11.28
2022-12-31T01:10:22.800Z,11.85
2022-12-31T01:12:57.525Z,11.85
2022-12-31T01:15:31.615Z,13.25
2022-12-31T01:18:11.665Z,13.15
2022-12-31T01:20:49.285Z,13.25
2022-12-31T01:23:17.759Z,10.40
2022-12-31T01:25:56.851Z,11.25
2022-12-31T01:28:27.549Z,12.85
2022-12-31T01:31:00.779Z,10.55
2022-12-31T01:33:36.745Z,9.70
2022-12-31T01:36:25.043Z,10.10
2022-12-31T01:38:54.774Z,9.23
2022-12-31T01:41:43.603Z,8.95
2022-12-31T01:44:28.779Z,9.23
2022-12-31T01:47:00.841Z,14.58
2022-12-31T01:49:48.963Z,13.78
2022-12-31T01:52:34.546Z,8.85
2022-12-31T01:55:22.850Z,8.03
2022-12-31T01:57:55.499Z,7.70
2022-12-31T02:00:22.920Z,8.65
2022-12-31T02:02:51.092Z,10.18
2022-12-31T02:05:30.476Z,11.22
2022-12-31T02:07:59.583Z,12.23
2022-12-31T02:10:27.798Z,10.43
2022-12-31T02:12:55.735Z,11.38
2022-12-31T02:15:47.117Z,11.70
2022-12-31T02:18:56.890Z,13.22
2022-12-31T02:21:58.850Z,13.80
2022-12-31T02:24:56.256Z,14.58
2022-12-31T02:27:35.694Z,12.47
2022-12-31T02:30:08.335Z,11.57
2022-12-31T02:32:44.569Z,11.03
2022-12-31T02:35:33.129Z,10.05
2022-12-31T02:38:12.107Z,8.95
2022-12-31T02:40:39.940Z,12.78
2022-12-31T02:43:09.695Z,12.65
2022-12-31T02:45:41.724Z,12.15
2022-12-31T02:48:33.066Z,12.37
2022-12-31T02:51:37.860Z,16.27
2022-12-31T02:54:33.975Z,25.80
2022-12-31T02:57:27.805Z,25.48
2022-12-31T03:00:24.343Z,22.07
2022-12-31T03:02:53.994Z,15.45
2022-12-31T03:05:25.491Z,12.35
2022-12-31T03:07:54.058Z,13.28
2022-12-31T03:10:21.564Z,16.42
2022-12-31T03:12:51.585Z,26.37
2022-12-31T03:15:37.625Z,26.85
2022-12-31T03:18:21.210Z,17.98
2022-12-31T03:21:16.666Z,15.08
2022-12-31T03:24:16.234Z,15.30
2022-12-31T03:26:48.193Z,15.83
2022-12-31T03:29:27.871Z,14.65
2022-12-31T03:32:00.188Z,15.88
2022-12-31T03:34:28.070Z,12.20
2022-12-31T03:36:55.605Z,11.80
2022-12-31T03:39:22.994Z,14.23
2022-12-31T03:41:50.556Z,12.82
2022-12-31T03:44:18.109Z,11.90
2022-12-31T03:46:45.717Z,16.10
2022-12-31T03:49:13.420Z,18.32
2022-12-31T03:51:41.245Z,19.37
2022-12-31T03:54:08.874Z,18.45
2022-12-31T03:56:36.320Z,16.87
2022-12-31T03:59:04.029Z,17.20
2022-12-31T04:01:33.335Z,16.95
2022-12-31T04:04:00.904Z,16.02
2022-12-31T04:06:28.441Z,16.50
2022-12-31T04:08:56.083Z,20.32
2022-12-31T04:11:23.738Z,22.35
2022-12-31T04:13:51.395Z,22.73
2022-12-31T04:16:19.139Z,17.62
2022-12-31T04:18:46.672Z,15.75
2022-12-31T04:21:14.325Z,15.58
2022-12-31T04:23:41.855Z,14.45
2022-12-31T04:26:09.613Z,13.98
2022-12-31T04:28:37.135Z,14.83
2022-12-31T04:31:04.919Z,13.90
2022-12-31T04:33:32.711Z,15.30
2022-12-31T04:36:02.273Z,14.80
2022-12-31T04:38:30.306Z,14.68
2022-12-31T04:41:16.553Z,14.75
2022-12-31T04:43:51.460Z,16.15
2022-12-31T04:46:23.607Z,18.37
2022-12-31T04:48:51.386Z,17.85
2022-12-31T04:51:19.233Z,19.12
2022-12-31T04:53:47.082Z,24.77
2022-12-31T04:56:15.789Z,25.95
2022-12-31T04:58:48.161Z,24.25
2022-12-31T05:01:15.896Z,24.43
2022-12-31T05:03:43.641Z,22.93
2022-12-31T05:06:22.407Z,24.30
2022-12-31T05:08:50.510Z,28.07
2022-12-31T05:11:17.918Z,26.10
2022-12-31T05:13:45.469Z,21.57
2022-12-31T05:16:13.583Z,23.65
2022-12-31T05:18:41.249Z,25.10
2022-12-31T05:21:10.310Z,21.97
2022-12-31T05:23:38.411Z,21.60
2022-12-31T05:26:06.131Z,23.73
2022-12-31T05:28:33.747Z,25.35
2022-12-31T05:31:01.460Z,24.15
2022-12-31T05:33:31.773Z,21.80
2022-12-31T05:35:59.460Z,17.48
2022-12-31T05:38:27.082Z,12.85
2022-12-31T05:41:03.151Z,13.70
2022-12-31T05:43:31.569Z,12.40
2022-12-31T05:46:04.802Z,12.82
2022-12-31T05:48:33.001Z,13.38
2022-12-31T05:51:00.658Z,14.45
2022-12-31T05:53:28.357Z,16.15
2022-12-31T05:55:55.925Z,17.10
2022-12-31T05:58:23.363Z,16.55
2022-12-31T06:00:52.357Z,16.55
2022-12-31T06:03:20.245Z,18.12
2022-12-31T06:05:48.303Z,21.00
2022-12-31T06:08:16.041Z,25.02
2022-12-31T06:10:43.851Z,31.45
2022-12-31T06:13:11.403Z,28.83
2022-12-31T06:15:39.983Z,29.10
2022-12-31T06:18:08.117Z,24.43
2022-12-31T06:20:38.959Z,20.40
2022-12-31T06:23:06.467Z,23.98
2022-12-31T06:25:39.297Z,39.70
2022-12-31T06:28:06.991Z,26.93
2022-12-31T06:30:34.545Z,21.52
2022-12-31T06:33:02.163Z,15.60
2022-12-31T06:35:29.657Z,12.25
2022-12-31T06:37:57.568Z,12.15
2022-12-31T06:40:25.085Z,11.43
2022-12-31T06:42:59.515Z,13.62
2022-12-31T06:45:22.394Z,19.17
2022-12-31T06:47:50.448Z,21.48
2022-12-31T06:50:18.274Z,21.60
2022-12-31T06:52:45.794Z,20.70
2022-12-31T06:55:14.722Z,19.35
2022-12-31T06:57:42.999Z,25.80
2022-12-31T07:00:12.650Z,36.65
2022-12-31T07:03:11.868Z,34.90
2022-12-31T07:05:45.696Z,35.13
2022-12-31T07:08:33.997Z,19.80
2022-12-31T07:11:22.859Z,16.73
2022-12-31T07:14:01.695Z,16.87
2022-12-31T07:16:54.461Z,18.85
2022-12-31T07:19:47.535Z,18.77
2022-12-31T07:22:17.320Z,24.45
2022-12-31T07:24:46.135Z,25.43
2022-12-31T07:28:03.488Z,25.92
2022-12-31T07:31:03.633Z,21.82
2022-12-31T07:33:42.690Z,20.90
2022-12-31T07:36:18.519Z,21.70
2022-12-31T07:39:00.760Z,19.90
2022-12-31T07:41:58.063Z,21.00
2022-12-31T07:44:43.220Z,22.60
2022-12-31T07:47:27.137Z,23.60
2022-12-31T07:49:56.280Z,21.52
2022-12-31T07:52:24.744Z,18.70
2022-12-31T07:54:52.496Z,18.23
2022-12-31T07:57:21.020Z,16.05
2022-12-31T07:59:56.781Z,14.20
2022-12-31T08:02:52.933Z,14.43
2022-12-31T08:05:52.598Z,14.25
2022-12-31T08:08:31.069Z,16.00
2022-12-31T08:11:33.973Z,16.02
2022-12-31T08:14:02.254Z,16.95
2022-12-31T08:16:30.777Z,17.85
2022-12-31T08:18:58.839Z,18.90
2022-12-31T08:21:50.163Z,18.42
2022-12-31T08:24:35.337Z,20.17
2022-12-31T08:27:37.532Z,22.05
2022-12-31T08:30:15.156Z,20.05
2022-12-31T08:33:12.297Z,19.92
2022-12-31T08:36:08.346Z,19.10
2022-12-31T08:38:56.378Z,17.82
2022-12-31T08:41:42.645Z,20.40
2022-12-31T08:44:31.595Z,17.35
2022-12-31T08:47:13.256Z,23.65
2022-12-31T08:49:41.843Z,16.80
2022-12-31T08:52:20.906Z,16.05
2022-12-31T08:54:49.234Z,15.45
2022-12-31T08:57:53.939Z,16.17
2022-12-31T09:00:22.801Z,16.20
2022-12-31T09:03:29.358Z,17.35
2022-12-31T09:06:23.579Z,20.85
2022-12-31T09:09:08.865Z,25.90
2022-12-31T09:11:59.400Z,38.42
2022-12-31T09:14:48.479Z,20.92
2022-12-31T09:17:33.614Z,22.40
2022-12-31T09:20:04.784Z,22.58
2022-12-31T09:22:32.614Z,19.52
2022-12-31T09:25:00.953Z,15.30
2022-12-31T09:27:34.097Z,15.50
2022-12-31T09:30:10.601Z,14.80
2022-12-31T09:32:58.664Z,17.30
2022-12-31T09:35:42.605Z,20.40
2022-12-31T09:38:33.680Z,18.32
2022-12-31T09:41:42.295Z,18.27
2022-12-31T09:44:59.223Z,21.40
2022-12-31T09:48:05.569Z,19.67
2022-12-31T09:50:45.909Z,22.20
2022-12-31T09:53:27.848Z,19.15
2022-12-31T09:56:12.336Z,21.37
2022-12-31T09:59:19.587Z,22.87
2022-12-31T10:02:36.519Z,19.32
2022-12-31T10:05:27.905Z,24.10
2022-12-31T10:08:10.294Z,23.60
2022-12-31T10:11:04.644Z,28.55
2022-12-31T10:13:49.178Z,21.60
2022-12-31T10:16:49.576Z,20.48
2022-12-31T10:19:43.419Z,18.98
2022-12-31T10:22:43.253Z,18.17
2022-12-31T10:25:50.242Z,21.80
2022-12-31T10:28:42.473Z,20.17
2022-12-31T10:31:38.244Z,21.07
2022-12-31T10:34:57.142Z,22.55
2022-12-31T10:37:32.908Z,26.37
2022-12-31T10:40:35.366Z,24.37
2022-12-31T10:43:54.354Z,25.45
2022-12-31T10:47:05.139Z,25.23
2022-12-31T10:49:57.762Z,26.02
2022-12-31T10:52:46.419Z,25.32
2022-12-31T10:55:28.459Z,28.32
2022-12-31T10:58:26.908Z,27.32
2022-12-31T11:01:15.378Z,24.00
2022-12-31T11:04:17.844Z,20.30
2022-12-31T11:07:40.011Z,18.55
2022-12-31T11:10:39.314Z,19.75
2022-12-31T11:13:54.438Z,17.52
2022-12-31T11:16:59.278Z,22.27
2022-12-31T11:20:05.401Z,30.60
2022-12-31T11:22:48.086Z,25.02
2022-12-31T11:25:45.773Z,22.17
2022-12-31T11:28:48.839Z,24.20
2022-12-31T11:31:34.323Z,27.60
2022-12-31T11:34:28.988Z,30.52
2022-12-31T11:37:31.186Z,25.85
2022-12-31T11:40:27.032Z,27.90
2022-12-31T11:43:21.064Z,26.90
2022-12-31T11:49:07.372Z,24.27
2022-12-31T11:52:10.728Z,18.55
2022-12-31T11:55:03.437Z,21.30
2022-12-31T11:57:39.441Z,22.35
2022-12-31T12:00:20.808Z,22.67
2022-12-31T12:03:02.512Z,23.12
2022-12-31T12:05:33.687Z,20.37
2022-12-31T12:08:01.958Z,20.25
2022-12-31T12:10:49.819Z,20.90
2022-12-31T12:13:24.244Z,24.70
2022-12-31T12:15:59.548Z,22.75
2022-12-31T12:18:47.821Z,23.35
2022-12-31T12:21:22.754Z,23.47
2022-12-31T12:24:11.006Z,25.65
2022-12-31T12:26:42.572Z,22.13
2022-12-31T12:29:21.215Z,18.25
2022-12-31T12:32:05.914Z,17.85
2022-12-31T12:34:45.917Z,18.67
2022-12-31T12:37:34.902Z,15.98
2022-12-31T12:40:27.019Z,14.50
2022-12-31T12:42:53.817Z,13.70
2022-12-31T12:45:29.526Z,13.18
2022-12-31T12:48:01.380Z,14.68
2022-12-31T12:50:47.878Z,17.00
2022-12-31T12:53:39.054Z,17.52
2022-12-31T12:56:12.245Z,17.55
2022-12-31T12:59:00.161Z,18.25
2022-12-31T13:01:47.868Z,16.97
2022-12-31T13:04:35.198Z,19.07
2022-12-31T13:07:26.474Z,19.60
2022-12-31T13:10:11.405Z,17.35
2022-12-31T13:13:22.661Z,16.57
2022-12-31T13:15:40.139Z,17.20
2022-12-31T13:18:19.188Z,17.20
2022-12-31T13:21:13.555Z,19.00
2022-12-31T13:23:55.546Z,20.12
2022-12-31T13:26:31.331Z,22.05
2022-12-31T13:29:02.387Z,22.70
2022-12-31T13:31:37.462Z,25.17
2022-12-31T13:34:10.523Z,28.02
2022-12-31T13:36:41.869Z,28.85
2022-12-31T13:39:17.916Z,35.73
2022-12-31T13:41:54.085Z,32.17
2022-12-31T13:44:39.693Z,23.52
2022-12-31T13:47:42.778Z,23.75
2022-12-31T13:50:31.414Z,21.90
2022-12-31T13:53:26.263Z,25.30
2022-12-31T13:56:23.831Z,25.82
2022-12-31T13:59:05.904Z,26.52
2022-12-31T14:01:44.806Z,27.30
2022-12-31T14:04:23.592Z,29.20
2022-12-31T14:07:22.878Z,30.30
2022-12-31T14:09:50.549Z,28.60
2022-12-31T14:12:32.616Z,25.75
2022-12-31T14:15:26.179Z,24.85
2022-12-31T14:18:08.067Z,27.82
2022-12-31T14:20:56.258Z,26.27
2022-12-31T14:23:47.269Z,25.92
2022-12-31T14:26:29.652Z,32.45
2022-12-31T14:29:11.737Z,30.88
2022-12-31T14:31:56.716Z,34.05
2022-12-31T14:35:17.281Z,35.98
2022-12-31T14:38:27.645Z,32.83
2022-12-31T14:41:25.939Z,31.82
2022-12-31T14:44:34.004Z,35.15
2022-12-31T14:47:26.578Z,40.85
2022-12-31T14:50:16.693Z,52.13
2022-12-31T14:53:07.179Z,65.92
2022-12-31T14:55:37.966Z,63.95
2022-12-31T14:58:28.383Z,57.43
2022-12-31T15:01:00.647Z,62.40
2022-12-31T15:03:45.372Z,58.17
2022-12-31T15:06:27.957Z,55.10
2022-12-31T15:09:36.279Z,48.05
2022-12-31T15:12:49.395Z,46.58
2022-12-31T15:15:34.530Z,44.45
2022-12-31T15:18:28.976Z,43.68
2022-12-31T15:21:36.071Z,43.87
2022-12-31T15:24:20.097Z,43.65
2022-12-31T15:26:52.416Z,50.58
2022-12-31T15:29:33.337Z,42.70
2022-12-31T15:32:04.016Z,39.08
2022-12-31T15:34:34.832Z,34.98
2022-12-31T15:37:06.663Z,46.80
2022-12-31T15:39:41.447Z,58.15
2022-12-31T15:42:49.139Z,70.03
2022-12-31T15:45:47.855Z,63.20
2022-12-31T15:48:28.034Z,45.95
2022-12-31T15:50:59.637Z,44.75
2022-12-31T15:53:41.531Z,45.60
2022-12-31T15:56:17.289Z,63.25
2022-12-31T15:58:47.259Z,55.75
2022-12-31T16:01:22.431Z,55.75
2022-12-31T16:04:01.912Z,54.03
2022-12-31T16:06:38.017Z,53.52
2022-12-31T16:09:27.230Z,57.25
2022-12-31T16:11:57.367Z,47.40
2022-12-31T16:14:38.374Z,36.63
2022-12-31T16:17:07.013Z,36.60
2022-12-31T16:19:45.249Z,40.73
2022-12-31T16:22:20.802Z,46.77
2022-12-31T16:27:30.872Z,43.10
2022-12-31T16:30:06.826Z,48.42
2022-12-31T16:32:37.725Z,52.17
2022-12-31T16:35:28.452Z,48.28
2022-12-31T16:38:15.637Z,50.03
2022-12-31T16:41:09.831Z,55.78
2022-12-31T16:46:27.410Z,50.80
2022-12-31T16:49:03.300Z,49.95
2022-12-31T16:51:33.968Z,56.40
2022-12-31T16:54:03.067Z,48.95
2022-12-31T16:56:37.683Z,34.83
2022-12-31T16:59:17.661Z,34.83
2022-12-31T17:01:46.491Z,32.70
2022-12-31T17:04:18.384Z,35.85
2022-12-31T17:06:47.914Z,38.30
2022-12-31T17:09:22.377Z,36.48
2022-12-31T17:12:00.271Z,30.37
2022-12-31T17:14:30.023Z,34.95
2022-12-31T17:17:07.389Z,44.18
2022-12-31T17:19:45.459Z,48.92
2022-12-31T17:22:37.348Z,49.90
2022-12-31T17:25:15.841Z,45.00
2022-12-31T17:27:54.764Z,38.08
2022-12-31T17:30:34.476Z,36.83
2022-12-31T17:33:06.717Z,34.38
2022-12-31T17:35:39.945Z,31.10
2022-12-31T17:38:27.826Z,34.33
2022-12-31T17:41:04.792Z,33.60
2022-12-31T17:43:37.823Z,36.35
2022-12-31T17:46:15.487Z,35.75
2022-12-31T17:48:45.779Z,173.72
2022-12-31T17:51:13.429Z,75.32
2022-12-31T17:53:42.119Z,40.90
2022-12-31T17:56:15.036Z,35.13
2022-12-31T17:58:49.737Z,33.83
2022-12-31T18:01:22.990Z,33.40
2022-12-31T18:03:51.447Z,33.90
2022-12-31T18:06:19.031Z,33.48
2022-12-31T18:08:46.926Z,32.73
2022-12-31T18:11:19.800Z,28.35
2022-12-31T18:13:47.900Z,28.85
2022-12-31T18:16:16.100Z,29.75
2022-12-31T18:18:44.692Z,28.98
2022-12-31T18:21:35.663Z,30.20
2022-12-31T18:24:04.818Z,30.52
2022-12-31T18:26:33.915Z,35.88
2022-12-31T18:29:13.022Z,30.35
2022-12-31T18:31:46.977Z,31.30
2022-12-31T18:34:17.355Z,31.02
2022-12-31T18:36:45.869Z,28.32
2022-12-31T18:39:13.623Z,28.85
2022-12-31T18:41:48.901Z,27.67
2022-12-31T18:44:17.659Z,36.70
2022-12-31T18:46:45.833Z,35.92
2022-12-31T18:49:13.698Z,29.05
2022-12-31T18:51:41.470Z,27.55
2022-12-31T18:54:11.390Z,28.77
2022-12-31T18:56:44.797Z,26.35
2022-12-31T18:59:08.940Z,25.70
2022-12-31T19:01:41.016Z,27.52
2022-12-31T19:04:27.204Z,34.30
2022-12-31T19:06:50.557Z,37.90
2022-12-31T19:09:43.909Z,40.38
2022-12-31T19:11:48.307Z,40.88
2022-12-31T19:14:21.291Z,36.15
2022-12-31T19:16:52.158Z,30.72
2022-12-31T19:19:20.898Z,26.85
2022-12-31T19:21:48.577Z,27.60
2022-12-31T19:24:24.033Z,27.95
2022-12-31T19:26:51.553Z,28.47
2022-12-31T19:29:24.292Z,29.72
2022-12-31T19:31:52.890Z,29.12
2022-12-31T19:34:21.041Z,26.15
2022-12-31T19:36:49.051Z,27.20
2022-12-31T19:39:19.632Z,28.62
2022-12-31T19:41:52.970Z,26.55
2022-12-31T19:44:19.237Z,24.27
2022-12-31T19:46:48.800Z,22.55
2022-12-31T19:49:16.444Z,23.20
2022-12-31T19:51:43.708Z,25.65
2022-12-31T19:54:13.191Z,138.92
2022-12-31T19:56:41.655Z,41.40
2022-12-31T19:59:10.652Z,39.25
2022-12-31T20:01:38.634Z,36.93
2022-12-31T20:04:06.913Z,39.18
2022-12-31T20:06:34.625Z,40.08
2022-12-31T20:09:03.117Z,40.05
2022-12-31T20:11:31.043Z,36.40
2022-12-31T20:13:59.037Z,33.75
2022-12-31T20:16:26.540Z,33.13
2022-12-31T20:18:54.261Z,34.30
2022-12-31T20:21:26.804Z,33.18
2022-12-31T20:23:55.027Z,34.27
2022-12-31T20:26:24.315Z,30.30
2022-12-31T20:28:53.216Z,30.70
2022-12-31T20:31:24.505Z,32.70
2022-12-31T20:33:53.724Z,32.75
2022-12-31T20:36:22.136Z,28.47
2022-12-31T20:38:50.214Z,26.50
2022-12-31T20:41:21.488Z,24.32
2022-12-31T20:43:49.167Z,23.50
2022-12-31T20:46:21.797Z,24.32
2022-12-31T20:48:52.372Z,26.97
2022-12-31T20:51:21.997Z,28.65
2022-12-31T20:53:55.856Z,29.87
2022-12-31T20:56:29.214Z,29.02
2022-12-31T20:58:57.353Z,33.23
2022-12-31T21:01:32.229Z,35.45
2022-12-31T21:04:05.546Z,38.30
2022-12-31T21:06:25.468Z,48.85
2022-12-31T21:08:58.497Z,41.58
2022-12-31T21:11:45.704Z,44.85
2022-12-31T21:14:13.438Z,44.18
2022-12-31T21:16:41.164Z,51.25
2022-12-31T21:19:09.418Z,46.10
2022-12-31T21:21:37.188Z,41.20
2022-12-31T21:24:05.760Z,39.23
2022-12-31T21:26:34.042Z,38.23
2022-12-31T21:29:03.472Z,32.63
2022-12-31T21:31:31.030Z,74.27
2022-12-31T21:33:58.659Z,73.15
2022-12-31T21:36:26.420Z,37.90
2022-12-31T21:38:54.218Z,49.77
2022-12-31T21:41:40.607Z,26.52
2022-12-31T21:44:08.484Z,22.85
2022-12-31T21:46:36.554Z,23.45
2022-12-31T21:49:04.728Z,25.75
2022-12-31T21:51:34.323Z,23.10
2022-12-31T21:54:01.981Z,20.82
2022-12-31T21:56:29.486Z,21.27
2022-12-31T21:59:18.282Z,76.80
2022-12-31T22:02:04.599Z,31.87
2022-12-31T22:07:01.287Z,35.58
2022-12-31T22:09:28.586Z,40.65
2022-12-31T22:11:56.545Z,37.50
2022-12-31T22:14:24.164Z,39.35
2022-12-31T22:16:51.533Z,39.18
2022-12-31T22:19:19.000Z,41.85
2022-12-31T22:21:47.279Z,43.75
2022-12-31T22:24:14.851Z,48.73
2022-12-31T22:26:46.488Z,47.80
2022-12-31T22:29:12.519Z,50.15
2022-12-31T22:31:40.536Z,58.58
2022-12-31T22:34:08.448Z,58.08
2022-12-31T22:36:36.063Z,56.02
2022-12-31T22:39:03.875Z,39.75
2022-12-31T22:41:34.354Z,34.92
2022-12-31T22:44:04.662Z,35.50
2022-12-31T22:46:33.844Z,32.08
2022-12-31T22:49:05.352Z,29.43
2022-12-31T22:51:57.605Z,32.25
2022-12-31T22:54:03.226Z,36.08
2022-12-31T22:56:30.924Z,38.08
2022-12-31T22:58:58.778Z,41.80
2022-12-31T23:01:26.594Z,45.48
2022-12-31T23:03:55.067Z,43.13
2022-12-31T23:06:24.034Z,35.23
2022-12-31T23:09:11.437Z,28.80
2022-12-31T23:11:40.340Z,26.97
2022-12-31T23:14:35.093Z,25.75
2022-12-31T23:17:30.369Z,25.88
2022-12-31T23:20:09.512Z,24.43
2022-12-31T23:22:55.468Z,23.83
2022-12-31T23:25:23.067Z,24.63
2022-12-31T23:27:51.642Z,24.07
2022-12-31T23:30:19.218Z,23.50
2022-12-31T23:32:46.949Z,24.30
2022-12-31T23:35:14.999Z,26.90
2022-12-31T23:37:43.028Z,31.68
2022-12-31T23:40:18.925Z,31.80
2022-12-31T23:42:42.620Z,34.73
2022-12-31T23:45:10.654Z,35.43
2022-12-31T23:47:38.444Z,41.65
2022-12-31T23:50:07.288Z,51.15
2022-12-31T23:52:34.637Z,54.67
2022-12-31T23:55:06.112Z,52.48
2022-12-31T23:57:33.659Z,48.05
